Coxville, Indiana
Current Conditions -  °F | °C
As of 5:53 AM on Saturday 22 Nov 2014 (Local Time) from KHUF Reporting Station
Overcast Overcast  
Wind Chill: 33°   Ceiling: 9000
Heat Index: 40°   Visibility: 10mi
Dew Point: 30°   Wind: 10mph
Humidity: 68%   Direction: 190°S
Pressure: 30.2"   Gusts: NA
Location:  39.6386°N, 87.3045°W
Report Text: KHUF 221053Z 19009KT 10SM OVC090 04/M01 A3020 RMK AO2 SLP231 T00441011
Loading
Personal Weather Stations






























Interactive Weather Map New forecast layout! Learn more

10-Day Weather Forecast

Advertisements
Track Severe Weather on mobile